Time;durP1;ratioP1;P1;durP2;ratioP2;P2;SDS_P1;SDS_P2;PMS_P1;PMS_P2;Temp;Humidity;BMP_temperature;BMP_pressure;BME280_temperature;BME280_humidity;BME280_pressure;Samples;Min_cycle;Max_cycle;Signal;HPM_P1;HPM_P2
2020/12/09 00:02:41;;;;;;;8.40;5.72;;;21.00;44.60;;;;;;6218666;28;20026;-57
2020/12/09 00:05:41;;;;;;;7.68;5.30;;;21.00;44.70;;;;;;6219682;28;20021;-53
2020/12/09 00:08:42;;;;;;;7.80;5.68;;;21.00;44.70;;;;;;6224968;28;20026;-58
2020/12/09 00:11:43;;;;;;;7.78;5.10;;;21.00;44.60;;;;;;6243668;28;20581;-57
2020/12/09 00:14:43;;;;;;;8.25;5.68;;;21.00;44.70;;;;;;6243282;28;20033;-53
2020/12/09 00:17:44;;;;;;;6.97;5.10;;;21.00;44.70;;;;;;6243793;28;20022;-52
2020/12/09 00:20:44;;;;;;;7.75;5.38;;;21.00;44.80;;;;;;6242984;28;20033;-56
2020/12/09 00:23:45;;;;;;;8.40;5.65;;;21.00;44.70;;;;;;6243283;28;20023;-57
2020/12/09 00:26:46;;;;;;;7.43;5.38;;;21.00;44.70;;;;;;6243127;28;20021;-54
2020/12/09 00:29:46;;;;;;;8.52;5.82;;;21.00;44.70;;;;;;6243106;28;20018;-57
2020/12/09 00:32:47;;;;;;;7.75;5.13;;;21.00;44.70;;;;;;6242822;28;20036;-51
2020/12/09 00:35:48;;;;;;;8.82;5.82;;;21.00;44.70;;;;;;6242461;28;20059;-58
2020/12/09 00:38:50;;;;;;;8.05;5.20;;;21.00;44.70;;;;;;6243421;28;20382;-54
2020/12/09 00:41:51;;;;;;;7.78;5.40;;;21.00;44.70;;;;;;6241902;28;20029;-54
2020/12/09 00:44:51;;;;;;;7.43;5.30;;;21.00;44.80;;;;;;6242695;28;20125;-52
2020/12/09 00:47:52;;;;;;;7.78;5.30;;;21.00;44.80;;;;;;6242225;28;20053;-54
2020/12/09 00:50:52;;;;;;;7.45;5.38;;;21.00;44.80;;;;;;6242473;28;20124;-53
2020/12/09 00:53:53;;;;;;;8.63;5.60;;;21.00;44.80;;;;;;6242007;28;20064;-54
2020/12/09 00:56:53;;;;;;;8.90;5.25;;;21.00;44.80;;;;;;6241845;28;20057;-58
2020/12/09 00:59:54;;;;;;;8.40;5.28;;;21.00;44.80;;;;;;6242569;28;20030;-56
2020/12/09 01:02:54;;;;;;;7.47;5.43;;;21.00;44.80;;;;;;6241622;28;20390;-53
2020/12/09 01:05:55;;;;;;;7.63;5.43;;;21.00;44.80;;;;;;6242394;28;20017;-56
2020/12/09 01:08:55;;;;;;;6.80;5.10;;;21.00;44.80;;;;;;6241387;28;20029;-53
2020/12/09 01:12:01;;;;;;;7.75;5.25;;;21.00;44.80;;;;;;6241997;28;20026;-56
2020/12/09 01:15:01;;;;;;;6.90;5.13;;;20.90;44.70;;;;;;6241563;28;20018;-56
2020/12/09 01:18:02;;;;;;;9.30;5.30;;;20.90;44.70;;;;;;6241586;28;20033;-55
2020/12/09 01:21:02;;;;;;;8.98;5.88;;;20.90;44.70;;;;;;6241774;28;20171;-57
2020/12/09 01:24:03;;;;;;;7.45;5.47;;;20.90;44.80;;;;;;6241353;28;20108;-55
2020/12/09 01:27:03;;;;;;;8.90;5.45;;;20.90;44.70;;;;;;6241969;28;20028;-56
2020/12/09 01:30:04;;;;;;;7.82;5.35;;;20.90;44.70;;;;;;6240801;28;20033;-53
2020/12/09 01:33:05;;;;;;;7.88;5.13;;;20.90;44.80;;;;;;6241670;28;20139;-58
2020/12/09 01:36:05;;;;;;;8.50;5.45;;;20.90;44.80;;;;;;6242973;28;20029;-54
2020/12/09 01:39:06;;;;;;;7.13;4.93;;;20.90;44.80;;;;;;6241398;28;20034;-54
2020/12/09 01:42:06;;;;;;;7.55;4.97;;;20.90;44.80;;;;;;6241226;28;20033;-57
2020/12/09 01:45:07;;;;;;;7.43;5.20;;;20.90;44.80;;;;;;6241503;28;20025;-57
2020/12/09 01:48:10;;;;;;;7.65;4.90;;;20.90;44.80;;;;;;6241934;28;20025;-54
2020/12/09 01:51:13;;;;;;;7.15;4.90;;;20.90;44.80;;;;;;6241108;28;20021;-57
2020/12/09 01:54:13;;;;;;;7.22;4.97;;;20.90;44.80;;;;;;6241558;28;20025;-56
2020/12/09 01:57:14;;;;;;;6.90;5.00;;;20.90;44.80;;;;;;6241101;28;20525;-58
2020/12/09 02:00:15;;;;;;;7.15;4.88;;;20.90;44.80;;;;;;6240954;28;20030;-56
2020/12/09 02:03:16;;;;;;;6.75;4.90;;;20.90;44.80;;;;;;6240995;28;20043;-56
2020/12/09 02:06:18;;;;;;;8.35;5.18;;;20.90;44.80;;;;;;6241391;28;20021;-58
2020/12/09 02:09:19;;;;;;;6.50;4.70;;;20.90;44.80;;;;;;6241089;28;20018;-56
2020/12/09 02:12:20;;;;;;;8.18;4.88;;;20.90;44.80;;;;;;6240872;28;20408;-58
2020/12/09 02:15:20;;;;;;;6.63;4.82;;;20.90;44.80;;;;;;6240994;28;20026;-59
2020/12/09 02:18:21;;;;;;;6.32;4.57;;;20.90;44.80;;;;;;6241044;28;20056;-56
2020/12/09 02:21:22;;;;;;;7.60;5.25;;;20.90;44.80;;;;;;6241830;28;20030;-56
2020/12/09 02:24:25;;;;;;;9.00;4.97;;;20.90;44.90;;;;;;6241026;28;20065;-56
2020/12/09 02:27:25;;;;;;;7.93;4.88;;;20.90;44.80;;;;;;6241105;28;20370;-57
2020/12/09 02:30:26;;;;;;;7.38;5.10;;;20.90;44.90;;;;;;6240791;28;20049;-59
2020/12/09 02:33:26;;;;;;;6.50;4.60;;;20.80;44.80;;;;;;6235959;28;20105;-58
2020/12/09 02:36:27;;;;;;;7.30;4.85;;;20.90;44.90;;;;;;6215744;28;20037;-58
2020/12/09 02:39:36;;;;;;;8.05;5.35;;;20.90;44.90;;;;;;6216635;28;20133;-60
2020/12/09 02:42:36;;;;;;;7.18;5.07;;;20.90;44.90;;;;;;6215768;28;20030;-57
2020/12/09 02:45:37;;;;;;;6.93;5.00;;;20.80;44.80;;;;;;6216344;28;20464;-58
2020/12/09 02:48:37;;;;;;;6.72;4.85;;;20.80;44.80;;;;;;6216756;28;20559;-49
2020/12/09 02:51:38;;;;;;;6.75;4.85;;;20.80;44.80;;;;;;6221050;28;20033;-52
2020/12/09 02:54:39;;;;;;;6.55;4.72;;;20.80;44.90;;;;;;6221719;28;20045;-52
2020/12/09 02:57:39;;;;;;;6.95;4.50;;;20.80;44.80;;;;;;6221903;28;20369;-56
2020/12/09 03:00:40;;;;;;;7.60;5.38;;;20.80;44.80;;;;;;6221651;28;20084;-53
2020/12/09 03:03:46;;;;;;;7.22;5.00;;;20.80;44.80;;;;;;6221500;28;20447;-52
2020/12/09 03:06:47;;;;;;;6.85;4.80;;;20.80;44.80;;;;;;6222004;28;20493;-50
2020/12/09 03:09:47;;;;;;;7.30;4.80;;;20.80;44.90;;;;;;6221322;28;20030;-50
2020/12/09 03:12:48;;;;;;;7.57;5.13;;;20.90;44.90;;;;;;6221718;28;20025;-56
2020/12/09 03:15:48;;;;;;;6.45;4.57;;;20.80;44.80;;;;;;6221658;28;20486;-51
2020/12/09 03:18:49;;;;;;;8.25;5.50;;;20.80;44.80;;;;;;6221300;28;20040;-56
2020/12/09 03:21:49;;;;;;;7.70;4.50;;;20.80;44.80;;;;;;6221576;28;20033;-56
2020/12/09 03:24:50;;;;;;;8.30;5.03;;;20.80;44.90;;;;;;6221108;28;20026;-52
2020/12/09 03:27:50;;;;;;;5.95;4.07;;;20.80;44.90;;;;;;6221210;28;20022;-52
2020/12/09 03:30:51;;;;;;;6.72;4.72;;;20.80;44.90;;;;;;6222126;28;20022;-56
2020/12/09 03:33:51;;;;;;;7.20;5.18;;;20.80;45.00;;;;;;6221459;28;20021;-52
2020/12/09 03:36:52;;;;;;;8.27;4.82;;;20.80;45.00;;;;;;6220684;28;20045;-55
2020/12/09 03:39:52;;;;;;;7.25;4.90;;;20.80;45.00;;;;;;6220301;28;20022;-50
2020/12/09 03:42:53;;;;;;;6.60;4.25;;;20.80;45.00;;;;;;6220719;28;20022;-54
2020/12/09 03:45:53;;;;;;;7.15;4.63;;;20.80;45.00;;;;;;6220804;28;20463;-52
2020/12/09 03:48:54;;;;;;;8.38;4.60;;;20.80;45.00;;;;;;6220983;28;20033;-55
2020/12/09 03:51:54;;;;;;;6.60;4.65;;;20.80;45.10;;;;;;6220174;28;20034;-54
2020/12/09 03:54:55;;;;;;;7.60;4.82;;;20.80;45.00;;;;;;6220867;28;20096;-56
2020/12/09 03:57:59;;;;;;;8.68;5.22;;;20.80;45.00;;;;;;6220527;28;20053;-51
2020/12/09 04:00:59;;;;;;;7.32;5.10;;;20.80;45.00;;;;;;6219964;28;20072;-55
2020/12/09 04:04:00;;;;;;;6.70;3.95;;;20.80;45.00;;;;;;6220300;28;20091;-55
2020/12/09 04:07:00;;;;;;;7.65;4.65;;;20.70;45.00;;;;;;6220428;28;20018;-53
2020/12/09 04:10:05;;;;;;;7.10;5.00;;;20.70;45.00;;;;;;6220249;28;20080;-51
2020/12/09 04:13:05;;;;;;;6.70;4.43;;;20.70;45.00;;;;;;6219794;28;20026;-51
2020/12/09 04:16:06;;;;;;;6.22;4.10;;;20.70;45.00;;;;;;6219504;28;20160;-54
2020/12/09 04:19:07;;;;;;;7.80;4.90;;;20.70;45.00;;;;;;6220036;28;20030;-50
2020/12/09 04:22:07;;;;;;;7.70;4.88;;;20.70;45.70;;;;;;6219286;28;20034;-51
2020/12/09 04:25:08;;;;;;;7.50;4.63;;;20.70;45.10;;;;;;6220113;28;20022;-53
2020/12/09 04:28:08;;;;;;;7.35;4.60;;;20.70;45.10;;;;;;6219713;28;20048;-54
2020/12/09 04:31:09;;;;;;;8.30;5.13;;;20.70;45.10;;;;;;6219789;28;20048;-56
2020/12/09 04:34:09;;;;;;;8.82;5.18;;;20.70;45.10;;;;;;6219502;28;20394;-50
2020/12/09 04:37:11;;;;;;;7.40;4.80;;;20.70;45.00;;;;;;6219348;28;20286;-53
2020/12/09 04:40:12;;;;;;;6.95;4.75;;;20.70;45.10;;;;;;6220007;28;20526;-53
2020/12/09 04:43:13;;;;;;;8.27;4.80;;;20.70;45.10;;;;;;6219071;28;20026;-53
2020/12/09 04:46:13;;;;;;;7.88;5.10;;;20.70;45.10;;;;;;6219621;28;20033;-54
2020/12/09 04:49:22;;;;;;;7.22;4.53;;;20.70;45.10;;;;;;6219160;28;20033;-51
2020/12/09 04:52:41;;;;;;;7.53;4.70;;;20.70;45.10;;;;;;6218859;28;20049;-53
2020/12/09 04:55:53;;;;;;;8.55;5.38;;;20.70;45.10;;;;;;6219383;28;20080;-52
2020/12/09 04:58:55;;;;;;;7.85;4.68;;;20.70;45.10;;;;;;6218933;28;20045;-56
2020/12/09 05:02:05;;;;;;;7.45;4.38;;;20.70;45.10;;;;;;6218794;28;20518;-50
2020/12/09 05:05:06;;;;;;;6.93;4.47;;;20.70;45.10;;;;;;6218702;28;20179;-56
2020/12/09 05:08:17;;;;;;;8.10;4.90;;;20.70;45.10;;;;;;6219228;28;20026;-55
2020/12/09 05:11:21;;;;;;;6.07;4.50;;;20.70;45.10;;;;;;6218461;28;20402;-51
2020/12/09 05:14:22;;;;;;;7.00;4.88;;;20.70;45.10;;;;;;6217819;28;20458;-51
2020/12/09 05:17:27;;;;;;;8.20;5.10;;;20.70;45.10;;;;;;6218500;28;20041;-55
2020/12/09 05:20:34;;;;;;;6.55;4.32;;;20.70;45.10;;;;;;6218446;28;20037;-55
2020/12/09 05:23:41;;;;;;;6.97;4.60;;;20.80;45.10;;;;;;6218566;28;20029;-53
2020/12/09 05:26:42;;;;;;;7.88;4.93;;;20.80;45.10;;;;;;6218292;28;20018;-54
2020/12/09 05:29:47;;;;;;;6.85;4.47;;;20.80;45.10;;;;;;6218553;28;20069;-53
2020/12/09 05:32:54;;;;;;;8.52;5.03;;;20.80;45.10;;;;;;6218436;28;20037;-53
2020/12/09 05:36:00;;;;;;;7.70;4.63;;;20.80;45.10;;;;;;6218437;28;20474;-51
2020/12/09 05:39:06;;;;;;;7.22;4.85;;;20.80;45.20;;;;;;6218492;28;20022;-53
2020/12/09 05:42:13;;;;;;;;;;;20.80;45.20;;;;;;6218367;28;20079;-52
2020/12/09 05:45:14;;;;;;;6.57;4.60;;;20.80;45.20;;;;;;6218029;28;20334;-52
2020/12/09 05:48:22;;;;;;;7.85;5.20;;;20.80;45.20;;;;;;6218182;28;20026;-54
2020/12/09 05:51:24;;;;;;;8.73;5.30;;;20.80;45.20;;;;;;6217669;28;20112;-50
2020/12/09 05:54:25;;;;;;;7.75;5.07;;;20.80;45.20;;;;;;6218114;28;20034;-53
2020/12/09 05:57:26;;;;;;;8.18;4.80;;;20.80;45.30;;;;;;6228889;28;20029;-52
2020/12/09 06:00:26;;;;;;;8.38;5.20;;;20.80;45.30;;;;;;6241193;28;20029;-51
2020/12/09 06:03:27;;;;;;;7.28;4.90;;;20.80;45.30;;;;;;6242612;28;20033;-51
2020/12/09 06:06:29;;;;;;;7.47;5.45;;;20.80;45.30;;;;;;6241165;28;20021;-50
2020/12/09 06:09:29;;;;;;;8.75;5.15;;;20.80;45.30;;;;;;6242466;28;20030;-51
2020/12/09 06:12:48;;;;;;;7.35;4.85;;;20.80;45.30;;;;;;6240834;28;20026;-54
2020/12/09 06:15:49;;;;;;;8.07;4.57;;;20.80;45.30;;;;;;6240848;28;20036;-52
2020/12/09 06:18:54;;;;;;;7.05;4.97;;;20.80;45.30;;;;;;6240824;28;20033;-51
2020/12/09 06:21:55;;;;;;;;;;;20.80;45.20;;;;;;6242374;28;20029;-54
2020/12/09 06:24:56;;;;;;;6.30;4.63;;;20.80;45.30;;;;;;6244424;28;19912;-49
2020/12/09 06:27:57;;;;;;;6.88;4.53;;;20.80;45.30;;;;;;6245676;28;20364;-53
2020/12/09 06:31:18;;;;;;;8.00;5.07;;;20.80;45.30;;;;;;6246023;28;20116;-54
2020/12/09 06:34:19;;;;;;;7.10;4.47;;;20.80;45.30;;;;;;6246549;28;20025;-51
2020/12/09 06:37:19;;;;;;;6.68;4.43;;;20.80;45.30;;;;;;6245861;28;20021;-55
2020/12/09 06:40:20;;;;;;;15.70;7.55;;;20.80;45.30;;;;;;6237796;28;20372;-61
2020/12/09 06:43:21;;;;;;;47.35;26.40;;;20.80;44.50;;;;;;6235420;28;20026;-62
2020/12/09 06:46:35;;;;;;;56.53;32.08;;;20.60;40.00;;;;;;6220989;28;20026;-56
2020/12/09 06:49:41;;;;;;;59.80;34.05;;;20.50;37.40;;;;;;6243682;28;20037;-50
2020/12/09 06:52:41;;;;;;;61.28;33.78;;;20.30;36.70;;;;;;6235769;28;20653;-52
2020/12/09 06:55:43;;;;;;;58.00;30.52;;;20.10;36.00;;;;;;6220166;28;20106;-54
2020/12/09 06:58:43;;;;;;;46.35;24.65;;;20.00;38.10;;;;;;6219719;28;20029;-53
2020/12/09 07:02:02;;;;;;;42.53;23.50;;;20.20;39.80;;;;;;6217007;28;20026;-57
2020/12/09 07:05:10;;;;;;;41.63;21.17;;;20.40;40.40;;;;;;6222518;28;20113;-52
2020/12/09 07:08:11;;;;;;;32.97;19.20;;;20.40;40.90;;;;;;6223902;28;20026;-54
2020/12/09 07:11:11;;;;;;;44.55;19.65;;;20.50;41.20;;;;;;6221768;28;20032;-55
2020/12/09 07:14:12;;;;;;;33.53;17.58;;;20.50;41.90;;;;;;6219852;28;20572;-53
2020/12/09 07:17:14;;;;;;;34.90;17.15;;;20.60;41.90;;;;;;6221018;28;20038;-55
2020/12/09 07:20:15;;;;;;;33.33;16.45;;;20.80;42.20;;;;;;6220403;28;20029;-55
2020/12/09 07:23:15;;;;;;;29.60;16.05;;;20.80;42.30;;;;;;6219645;28;20033;-57
2020/12/09 07:26:16;;;;;;;25.45;15.27;;;20.80;42.50;;;;;;6220290;28;20025;-52
2020/12/09 07:29:20;;;;;;;27.48;15.65;;;20.90;42.80;;;;;;6218400;28;20018;-58
2020/12/09 07:32:23;;;;;;;25.05;14.57;;;20.90;43.00;;;;;;6218249;28;20026;-51
2020/12/09 07:35:24;;;;;;;22.88;13.85;;;20.90;43.10;;;;;;6222896;28;20045;-55
2020/12/09 07:38:24;;;;;;;24.98;14.63;;;20.90;43.20;;;;;;6219475;28;20367;-55
2020/12/09 07:41:25;;;;;;;24.65;14.90;;;21.00;43.30;;;;;;6227759;28;20354;-49
2020/12/09 07:44:27;;;;;;;26.48;13.77;;;21.00;43.40;;;;;;6227230;28;20026;-55
2020/12/09 07:47:29;;;;;;;23.05;13.48;;;21.00;43.40;;;;;;6220648;28;20060;-52
2020/12/09 07:50:30;;;;;;;20.73;12.88;;;21.00;43.40;;;;;;6219336;28;20026;-54
2020/12/09 07:53:30;;;;;;;22.58;12.52;;;21.00;43.60;;;;;;6219699;28;20056;-57
2020/12/09 07:56:31;;;;;;;25.95;13.25;;;21.00;44.40;;;;;;6219792;28;20259;-48
2020/12/09 07:59:31;;;;;;;23.50;14.13;;;21.00;43.60;;;;;;6232409;28;20022;-50
2020/12/09 08:02:35;;;;;;;23.92;12.98;;;21.00;43.70;;;;;;6231425;28;20076;-53
2020/12/09 08:05:37;;;;;;;23.10;13.40;;;21.00;43.60;;;;;;6219649;28;20026;-54
2020/12/09 08:08:38;;;;;;;22.83;13.15;;;21.00;43.60;;;;;;6218485;28;20028;-53
2020/12/09 08:11:42;;;;;;;24.75;12.18;;;21.00;43.70;;;;;;6217824;28;20022;-56
2020/12/09 08:14:43;;;;;;;18.27;12.30;;;21.00;44.00;;;;;;6213760;28;20045;-55
2020/12/09 08:17:47;;;;;;;20.38;12.27;;;21.00;43.90;;;;;;6214853;28;20065;-54
2020/12/09 08:20:53;;;;;;;17.60;11.52;;;21.00;43.90;;;;;;6219175;28;20030;-53
2020/12/09 08:23:54;;;;;;;18.85;11.60;;;21.00;44.00;;;;;;6219168;28;20054;-55
2020/12/09 08:26:55;;;;;;;19.88;11.90;;;21.00;43.90;;;;;;6203616;28;20033;-55
2020/12/09 08:29:55;;;;;;;18.40;11.40;;;21.00;44.00;;;;;;6231190;28;20021;-54
2020/12/09 08:33:04;;;;;;;22.33;11.55;;;21.00;44.00;;;;;;6243420;28;20033;-53
2020/12/09 08:36:13;;;;;;;18.73;11.45;;;21.00;44.10;;;;;;6222697;28;20301;-56
2020/12/09 08:39:13;;;;;;;20.65;11.25;;;21.00;44.00;;;;;;6221751;28;20044;-53
2020/12/09 08:42:20;;;;;;;23.27;11.25;;;21.00;44.10;;;;;;6230300;28;20030;-53
2020/12/09 08:45:21;;;;;;;17.67;10.70;;;21.00;44.10;;;;;;6243024;28;20022;-55
2020/12/09 08:48:22;;;;;;;19.75;11.65;;;21.00;44.10;;;;;;6243078;28;20022;-55
2020/12/09 08:51:24;;;;;;;20.40;10.73;;;20.90;44.20;;;;;;6221469;28;20042;-53
2020/12/09 08:54:25;;;;;;;22.00;10.02;;;20.90;44.30;;;;;;6218182;28;20034;-51
2020/12/09 08:57:25;;;;;;;18.15;11.02;;;20.90;44.30;;;;;;6218149;28;20041;-54
2020/12/09 09:00:26;;;;;;;18.60;10.68;;;20.80;44.30;;;;;;6217608;28;20026;-56
2020/12/09 09:03:27;;;;;;;15.45;10.23;;;20.80;44.30;;;;;;6217131;28;20036;-53
2020/12/09 09:06:28;;;;;;;16.83;10.80;;;20.80;44.30;;;;;;6227235;28;20354;-53
2020/12/09 09:09:28;;;;;;;17.38;9.95;;;20.80;44.30;;;;;;6220506;28;20037;-57
2020/12/09 09:12:29;;;;;;;17.77;10.75;;;20.80;44.30;;;;;;6217175;28;20406;-56
2020/12/09 09:15:29;;;;;;;15.95;10.23;;;20.80;44.30;;;;;;6218652;28;20418;-52
2020/12/09 09:18:30;;;;;;;20.70;11.18;;;20.80;44.30;;;;;;6218151;28;20048;-58
2020/12/09 09:21:33;;;;;;;50.80;25.15;;;20.90;44.40;;;;;;6217088;28;20021;-52
2020/12/09 09:24:34;;;;;;;66.07;31.75;;;20.70;39.50;;;;;;6218871;28;20038;-55
2020/12/09 09:27:35;;;;;;;58.42;34.97;;;20.50;37.30;;;;;;6218712;28;20026;-56
2020/12/09 09:30:36;;;;;;;55.78;32.30;;;20.30;35.20;;;;;;6226395;28;20104;-56
2020/12/09 09:33:37;;;;;;;49.08;28.15;;;20.30;35.20;;;;;;6229037;28;20022;-54
2020/12/09 09:36:41;;;;;;;45.58;26.77;;;20.40;37.90;;;;;;6218110;28;20034;-53
2020/12/09 09:39:43;;;;;;;42.13;25.70;;;20.60;38.50;;;;;;6217436;28;20125;-58
2020/12/09 09:42:44;;;;;;;42.28;24.75;;;20.70;39.00;;;;;;6237622;28;20021;-55
2020/12/09 09:45:44;;;;;;;37.42;23.08;;;20.80;39.60;;;;;;6241561;28;20474;-56
2020/12/09 09:48:45;;;;;;;36.85;22.05;;;20.80;40.00;;;;;;6241058;28;20057;-56
2020/12/09 09:51:45;;;;;;;37.50;21.10;;;20.90;40.40;;;;;;6232586;28;20444;-61
2020/12/09 09:54:46;;;;;;;37.95;19.15;;;20.90;40.80;;;;;;6216925;28;20018;-57
2020/12/09 09:57:46;;;;;;;31.42;19.17;;;20.80;41.30;;;;;;6216875;28;20021;-60
2020/12/09 10:00:47;;;;;;;34.20;18.88;;;20.70;41.80;;;;;;6216453;28;20030;-59
2020/12/09 10:03:47;;;;;;;31.98;18.83;;;20.60;42.10;;;;;;6223902;28;20393;-57
2020/12/09 10:06:50;;;;;;;26.35;17.38;;;20.60;42.20;;;;;;6227666;28;20117;-61
2020/12/09 10:09:51;;;;;;;29.30;16.98;;;20.60;42.10;;;;;;6240945;28;20037;-60
2020/12/09 10:12:51;;;;;;;29.70;17.63;;;20.70;42.30;;;;;;6229395;28;20029;-58
2020/12/09 10:15:52;;;;;;;30.38;17.40;;;20.70;42.40;;;;;;6222764;28;20029;-61
2020/12/09 10:18:54;;;;;;;30.40;16.20;;;20.80;42.40;;;;;;6219972;28;20030;-59
2020/12/09 10:21:58;;;;;;;28.42;15.48;;;20.80;42.50;;;;;;6225456;28;20103;-57
2020/12/09 10:24:59;;;;;;;25.33;16.27;;;20.80;42.60;;;;;;6213029;28;20041;-59
2020/12/09 10:27:59;;;;;;;28.65;15.40;;;20.90;42.60;;;;;;6219572;28;20237;-60
2020/12/09 10:31:00;;;;;;;27.48;16.02;;;20.90;42.50;;;;;;6240266;28;20022;-58
2020/12/09 10:34:01;;;;;;;29.40;17.33;;;20.90;42.40;;;;;;6240998;28;20064;-57
2020/12/09 10:37:01;;;;;;;33.83;19.25;;;21.00;42.60;;;;;;6231306;28;20470;-58
2020/12/09 10:40:03;;;;;;;52.63;30.17;;;21.00;42.60;;;;;;6241304;28;20052;-56
2020/12/09 10:43:04;;;;;;;51.13;30.65;;;21.00;42.90;;;;;;6225968;28;20029;-57
2020/12/09 10:46:05;;;;;;;52.30;30.83;;;21.00;43.60;;;;;;6216828;28;20553;-57
2020/12/09 10:49:08;;;;;;;52.42;31.55;;;21.00;42.80;;;;;;6239549;28;20026;-59
2020/12/09 10:52:09;;;;;;;44.63;28.15;;;21.00;42.90;;;;;;6239601;28;20060;-60
2020/12/09 10:55:10;;;;;;;45.47;27.10;;;21.00;42.90;;;;;;6241221;28;20060;-61
2020/12/09 10:58:10;;;;;;;48.00;29.30;;;21.00;43.30;;;;;;6226823;28;20037;-60
2020/12/09 11:01:12;;;;;;;41.58;26.33;;;21.00;42.80;;;;;;6216169;28;20510;-60
2020/12/09 11:04:13;;;;;;;46.25;27.13;;;20.90;42.70;;;;;;6216352;28;20442;-58
2020/12/09 11:07:13;;;;;;;44.13;26.83;;;20.80;42.80;;;;;;6216874;28;20030;-61
2020/12/09 11:10:14;;;;;;;45.70;27.17;;;20.80;42.70;;;;;;6216351;28;20092;-62
2020/12/09 11:13:14;;;;;;;45.47;26.98;;;20.90;42.40;;;;;;6220454;28;20423;-60
2020/12/09 11:16:19;;;;;;;47.30;26.25;;;20.90;41.70;;;;;;6220467;28;20022;-58
2020/12/09 11:19:20;;;;;;;43.78;27.27;;;20.80;41.70;;;;;;6233746;28;20536;-60
2020/12/09 11:22:20;;;;;;;46.60;26.63;;;20.80;42.30;;;;;;6244225;28;20045;-61
2020/12/09 11:25:23;;;;;;;46.30;26.20;;;20.90;41.60;;;;;;6244725;28;20021;-57
2020/12/09 11:28:23;;;;;;;43.38;25.20;;;20.90;41.00;;;;;;6219055;28;20108;-58
2020/12/09 11:31:24;;;;;;;43.33;25.48;;;20.90;41.60;;;;;;6219438;28;20327;-59
2020/12/09 11:34:25;;;;;;;47.15;27.08;;;20.90;41.30;;;;;;6235569;28;20036;-61
2020/12/09 11:37:26;;;;;;;44.67;27.33;;;20.80;41.00;;;;;;6234971;28;20026;-61
2020/12/09 11:40:26;;;;;;;43.50;23.80;;;20.80;41.50;;;;;;6219556;28;20544;-58
2020/12/09 11:43:27;;;;;;;36.40;22.85;;;20.90;41.20;;;;;;6224720;28;20394;-60
2020/12/09 11:46:28;;;;;;;37.97;23.67;;;20.80;41.10;;;;;;6244521;28;20147;-62
2020/12/09 11:49:28;;;;;;;38.47;24.25;;;20.90;41.10;;;;;;6234236;28;20412;-60
2020/12/09 11:52:29;;;;;;;37.72;23.55;;;20.80;40.90;;;;;;6217842;28;20044;-62
2020/12/09 11:55:30;;;;;;;38.63;23.33;;;20.80;41.10;;;;;;6219258;28;20061;-57
2020/12/09 11:58:30;;;;;;;38.75;22.92;;;20.80;41.20;;;;;;6225702;28;20112;-55
2020/12/09 12:01:31;;;;;;;36.13;23.05;;;20.80;41.10;;;;;;6222444;28;20026;-57
2020/12/09 12:04:31;;;;;;;36.00;23.08;;;20.80;41.20;;;;;;6224252;28;20390;-57
2020/12/09 12:07:32;;;;;;;37.97;23.70;;;20.80;41.20;;;;;;6223141;28;20034;-59
2020/12/09 12:10:33;;;;;;;57.17;32.50;;;20.70;40.90;;;;;;6238720;28;20022;-57
2020/12/09 12:13:34;;;;;;;59.30;33.97;;;20.30;36.20;;;;;;6225635;28;20029;-58
2020/12/09 12:16:34;;;;;;;62.35;35.10;;;19.80;34.90;;;;;;6212098;28;20033;-56
2020/12/09 12:19:35;;;;;;;55.28;31.27;;;19.50;35.10;;;;;;6237549;28;20108;-56
2020/12/09 12:22:36;;;;;;;56.88;28.42;;;19.70;36.00;;;;;;6242398;28;20030;-58
2020/12/09 12:25:36;;;;;;;49.95;27.92;;;20.10;36.90;;;;;;6236243;28;20079;-56
2020/12/09 12:28:37;;;;;;;41.25;25.77;;;20.40;37.20;;;;;;6242672;28;20025;-58
2020/12/09 12:31:38;;;;;;;46.28;26.77;;;20.50;37.90;;;;;;6218775;28;20026;-58
2020/12/09 12:34:38;;;;;;;38.08;24.60;;;20.60;37.80;;;;;;6220735;28;20062;-58
2020/12/09 12:37:39;;;;;;;46.60;24.48;;;20.60;38.50;;;;;;6219174;28;20022;-54
2020/12/09 12:40:40;;;;;;;39.72;24.10;;;20.70;38.60;;;;;;6234312;28;20079;-57
2020/12/09 12:43:41;;;;;;;44.72;25.70;;;20.60;39.10;;;;;;6217935;28;20092;-61
2020/12/09 12:46:45;;;;;;;56.03;34.38;;;20.50;37.80;;;;;;6218992;28;20438;-59
2020/12/09 12:49:47;;;;;;;62.53;34.63;;;20.10;34.00;;;;;;6217524;28;20022;-55
2020/12/09 12:52:48;;;;;;;54.42;34.17;;;19.90;32.50;;;;;;6235650;28;20037;-59
2020/12/09 12:55:48;;;;;;;64.88;34.10;;;19.70;32.10;;;;;;6242626;28;20022;-57
2020/12/09 12:58:50;;;;;;;60.35;34.28;;;19.60;31.90;;;;;;6232768;28;20022;-61
2020/12/09 13:01:50;;;;;;;63.63;35.95;;;19.50;32.40;;;;;;6224391;28;20030;-59
2020/12/09 13:04:51;;;;;;;51.20;30.30;;;19.40;32.90;;;;;;6227763;28;20541;-58
2020/12/09 13:07:52;;;;;;;41.67;26.55;;;19.80;35.50;;;;;;6218241;28;20049;-59
2020/12/09 13:10:53;;;;;;;46.45;26.95;;;20.10;36.40;;;;;;6222031;28;20018;-57
2020/12/09 13:13:56;;;;;;;48.08;25.10;;;20.20;37.00;;;;;;6218248;28;20163;-56
2020/12/09 13:16:57;;;;;;;41.83;24.27;;;20.40;37.30;;;;;;6210329;28;20022;-56
2020/12/09 13:19:57;;;;;;;43.38;24.73;;;20.50;37.50;;;;;;6211914;28;20028;-57
2020/12/09 13:22:58;;;;;;;44.40;24.50;;;20.50;37.70;;;;;;6217186;28;20071;-58
2020/12/09 13:25:58;;;;;;;38.83;23.25;;;20.50;37.70;;;;;;6217880;28;20018;-56
2020/12/09 13:28:59;;;;;;;36.53;22.50;;;20.40;38.20;;;;;;6227703;28;20079;-55
2020/12/09 13:32:00;;;;;;;36.28;22.50;;;20.30;39.00;;;;;;6215227;28;20227;-54
2020/12/09 13:35:04;;;;;;;33.80;21.25;;;20.40;38.70;;;;;;6219763;28;20026;-56
2020/12/09 13:38:05;;;;;;;35.40;21.17;;;20.40;38.80;;;;;;6216201;28;20040;-53
2020/12/09 13:41:07;;;;;;;30.83;20.02;;;20.40;39.00;;;;;;6218208;28;20018;-56
2020/12/09 13:44:08;;;;;;;34.40;20.05;;;20.50;39.20;;;;;;6217476;28;20283;-57
2020/12/09 13:47:08;;;;;;;33.47;20.35;;;20.50;39.30;;;;;;6219669;28;20379;-55
2020/12/09 13:50:09;;;;;;;28.20;18.30;;;20.50;39.30;;;;;;6202051;28;20537;-55
2020/12/09 13:53:10;;;;;;;34.35;19.05;;;20.60;40.20;;;;;;6214706;28;20270;-58
2020/12/09 13:56:11;;;;;;;32.85;19.65;;;20.50;39.60;;;;;;6215965;28;20113;-59
2020/12/09 13:59:11;;;;;;;32.35;19.70;;;20.50;39.70;;;;;;6216252;28;20026;-54
2020/12/09 14:02:12;;;;;;;28.77;17.90;;;20.60;39.90;;;;;;6217329;28;20029;-55
2020/12/09 14:05:13;;;;;;;27.75;18.23;;;20.60;39.80;;;;;;6216563;28;20096;-58
2020/12/09 14:08:15;;;;;;;28.88;18.33;;;20.60;39.90;;;;;;6193016;28;20046;-58
2020/12/09 14:11:21;;;;;;;26.98;17.52;;;20.60;40.20;;;;;;6202201;28;20033;-54
2020/12/09 14:14:22;;;;;;;26.60;17.30;;;20.60;40.20;;;;;;6214852;28;20037;-57
2020/12/09 14:17:23;;;;;;;27.27;17.52;;;20.60;40.50;;;;;;6222406;28;20037;-54
2020/12/09 14:20:23;;;;;;;24.50;16.58;;;20.60;40.40;;;;;;6216106;28;20018;-53
2020/12/09 14:23:24;;;;;;;25.08;17.02;;;20.60;40.40;;;;;;6234385;28;20033;-55
2020/12/09 14:26:27;;;;;;;26.38;16.63;;;20.70;40.50;;;;;;6229050;28;20026;-55
2020/12/09 14:29:28;;;;;;;26.27;16.48;;;20.60;40.60;;;;;;6217011;28;20502;-57
2020/12/09 14:32:28;;;;;;;26.48;16.60;;;20.60;40.70;;;;;;6223980;28;20057;-56
2020/12/09 14:35:29;;;;;;;27.38;16.42;;;20.60;40.80;;;;;;6219887;28;20034;-55
2020/12/09 14:38:29;;;;;;;24.67;15.90;;;20.60;40.80;;;;;;6240135;28;20489;-57
2020/12/09 14:41:30;;;;;;;22.85;15.43;;;20.60;41.00;;;;;;6236730;28;20409;-57
2020/12/09 14:44:31;;;;;;;23.17;14.65;;;20.60;41.10;;;;;;6240400;28;20040;-58
2020/12/09 14:47:31;;;;;;;45.53;16.95;;;20.60;41.10;;;;;;6227272;28;20467;-59
2020/12/09 14:50:32;;;;;;;26.67;14.48;;;20.50;41.10;;;;;;6196311;28;20053;-57
2020/12/09 14:53:32;;;;;;;23.67;15.38;;;20.60;41.50;;;;;;6218812;28;20034;-56
2020/12/09 14:56:33;;;;;;;24.42;14.55;;;20.80;40.90;;;;;;6223277;28;20083;-62
2020/12/09 14:59:33;;;;;;;32.55;17.92;;;20.90;40.60;;;;;;6244523;28;20041;-58
2020/12/09 15:02:40;;;;;;;27.48;16.15;;;20.80;40.30;;;;;;6229606;28;20026;-53
2020/12/09 15:05:41;;;;;;;28.38;15.70;;;20.90;40.50;;;;;;6219700;28;20033;-54
2020/12/09 15:08:44;;;;;;;23.58;15.07;;;21.00;40.50;;;;;;6223469;28;20495;-63
2020/12/09 15:11:45;;;;;;;30.67;14.73;;;21.00;40.40;;;;;;6219734;28;20497;-56
2020/12/09 15:14:46;;;;;;;29.10;14.50;;;21.10;40.70;;;;;;6221811;28;20052;-57
2020/12/09 15:17:46;;;;;;;23.77;13.88;;;21.10;40.70;;;;;;6220368;28;20022;-58
2020/12/09 15:20:53;;;;;;;28.17;14.57;;;21.20;40.40;;;;;;6220633;28;20036;-54
2020/12/09 15:23:54;;;;;;;26.33;13.82;;;21.20;40.70;;;;;;6242122;28;20067;-57
2020/12/09 15:26:55;;;;;;;22.00;13.68;;;21.20;40.70;;;;;;6246154;28;20496;-58
2020/12/09 15:29:55;;;;;;;24.30;14.23;;;21.30;40.60;;;;;;6223649;28;20026;-56
2020/12/09 15:32:56;;;;;;;23.95;12.77;;;21.50;40.50;;;;;;6220156;28;20034;-58